• Join FlightAware (Why Join?)
  • Login
  • US Flag 
12:08PM EDT


 

Airport Tracker/Info


-or-


 

Live Flight TrackerFlight Track Log ✈ UCA3598 ✈ 16-Sep-2013 ✈ KIAD - KBGM

Flight Track Log - Related Links

Times and Time Zones

All times are in EDT time to prevent confusion due to time zone crossing. See the UCA3598 flight status page for this flight to view local times or setup timezone preferences in your user account.

Time Position Orientation Groundspeed Altitude Reporting Facility
EDT Latitude Longitude Course Direction KTS MPH feet Rate Location/Type
10:09PM 39.0050 -77.4800 North 177 204 3,200  Level Washington Center
10:10PM 39.0481 -77.5106 331° Northwest 185 213 4,600 1,380 Climbing Washington Center
10:11PM 39.0958 -77.5225 349° North 175 201 6,000 1,440 Climbing Washington Center
10:12PM 39.3361 -77.2913 North  Level Estimated
10:12PM 39.1464 -77.5000 19° North 170 196 7,500  Level Washington Center
10:13PM 39.4008 -77.2630 North  Level Estimated
10:13PM 39.1967 -77.4825 15° North 181 208 8,900  Level Washington Center
10:14PM 39.4648 -77.2942 339° North  Level FlightAware Approximate
10:14PM 39.2469 -77.4650 15° North 187 215 10,300  Level Washington Center
10:15PM 39.5227 -77.2676 North  Level Estimated
10:15PM 39.2972 -77.4447 17° North 187 215 11,600  Level Washington Center
10:16PM 39.3556 -77.4489 357° North 181 208 12,000 180 Climbing Washington Center
10:17PM 39.4222 -77.4506 359° North 208 239 12,000 120 Level Washington Center
10:18PM 39.4889 -77.4525 359° North 230 265 12,300 600 Climbing Washington Center
10:19PM 39.5556 -77.4542 359° North 236 272 13,300 960 Climbing Washington Center
10:21PM 39.6425 -77.4547 360° North 216 249 14,700 900 Climbing New York Center
10:22PM 39.6969 -77.4519 North 216 249 15,600 600 Climbing New York Center
10:23PM 39.7617 -77.4525 360° North 211 243 16,000 180 Climbing New York Center
10:24PM 39.8264 -77.4481 North 222 255 16,000 480 Level New York Center
10:25PM 39.8892 -77.4106 25° Northeast 232 267 17,000 900 Climbing New York Center
10:26PM 39.9453 -77.3781 24° Northeast 226 260 17,900 840 Climbing New York Center
10:27PM 40.0008 -77.3508 21° North 219 252 18,700 540 Climbing New York Center
10:28PM 40.0589 -77.3183 23° Northeast 218 251 19,000 120 Climbing New York Center
10:29PM 40.1233 -77.2864 21° North 232 267 19,000 -240 Level New York Center
10:30PM 40.1878 -77.2517 22° Northeast 243 280 18,600 -540 Descending New York Center
10:31PM 40.2567 -77.2117 24° Northeast 253 291 18,000 -300 Descending New York Center
10:32PM 40.3233 -77.1744 23° Northeast 258 297 18,000  Level New York Center
10:33PM 40.3878 -77.1394 22° Northeast 253 291 18,000  Level New York Center
10:34PM 40.4500 -77.1042 23° Northeast 248 285 18,000  Level New York Center
10:35PM 40.5144 -77.0692 22° Northeast 242 278 18,000  Level New York Center
10:36PM 40.5767 -77.0367 22° Northeast 242 278 18,000 -300 Level New York Center
10:37PM 40.6411 -76.9986 24° Northeast 242 278 17,500 -720 Descending New York Center
10:38PM 40.7078 -76.9636 22° Northeast 248 285 16,600 -900 Descending New York Center
10:39PM 40.7678 -76.9308 22° Northeast 248 285 15,700 -900 Descending New York Center
10:40PM 40.8386 -76.8906 23° Northeast 253 291 14,900 -420 Descending New York Center
10:41PM 40.8986 -76.8575 23° Northeast 253 291 14,900  Level New York Center
10:42PM 40.9608 -76.8219 23° Northeast 247 284 14,900  Level New York Center
10:43PM 41.0231 -76.7861 23° Northeast 242 278 14,900  Level New York Center
10:44PM 41.0853 -76.7531 22° Northeast 237 273 14,900  Level New York Center
10:45PM 41.1475 -76.7172 23° Northeast 237 273 14,900  Level New York Center
10:46PM 41.2094 -76.6839 22° Northeast 237 273 14,900  Level New York Center
10:47PM 41.2783 -76.6403 25° Northeast 243 280 14,900  Level New York Center
10:48PM 41.3361 -76.6094 22° Northeast 243 280 14,900  Level New York Center
10:49PM 41.3983 -76.5733 24° Northeast 243 280 14,900  Level New York Center
10:50PM 41.4669 -76.5350 23° Northeast 243 280 14,900 -600 Level New York Center
10:51PM 41.5353 -76.4967 23° Northeast 243 280 13,800 -1,200 Descending New York Center
10:52PM 41.6039 -76.4581 23° Northeast 256 295 12,500 -1,320 Descending New York Center
10:53PM 41.6567 -76.4014 39° Northeast 261 300 11,200 -1,440 Descending New York Center
10:54PM 41.7069 -76.3472 39° Northeast 251 289 9,700 -1,620 Descending New York Center
10:55PM 41.7533 -76.2928 41° Northeast 212 244 8,000 -1,500 Descending New York Center
10:56PM 41.7931 -76.2458 41° Northeast 190 219 6,800 -1,200 Descending New York Center
10:57PM 41.8328 -76.1936 44° Northeast 190 219 5,600 -1,200 Descending New York Center
10:58PM 41.8703 -76.1492 41° Northeast 195 224 4,500 -840 Descending New York Center
10:59PM 41.9100 -76.0967 45° Northeast 200 230 4,000 -300 Descending New York Center
11:00PM 41.9578 -76.0558 32° Northeast 186 214 4,000 -60 Level New York Center
11:01PM 41.9967 -76.0256 30° Northeast 169 194 3,900 -60 Descending New York Center
11:02PM 42.0333 -75.9922 34° Northeast 164 189 3,900  Level New York Center
11:03PM 42.0703 -75.9617 32° Northeast 159 183 3,900 -60 Level New York Center
11:04PM 42.1086 -75.9367 26° Northeast 154 177 3,800 -540 Descending New York Center
11:06PM 42.1706 -75.9528 349° North 113 130 2,300 -780 Descending New York Center
11:08PM 42.2000 -75.9667 North  Level FlightAware Approximate
11:15PM 42.2084 -75.9796 North  Level Estimated
11:16PM 42.2084 -75.9796 North  Level Estimated
11:17PM 42.2084 -75.9796 North  Level Estimated
11:18PM 42.2084 -75.9796 North  Level Estimated
11:19PM 42.2084 -75.9796 North  Level Estimated
11:20PM 42.2084 -75.9796 North  Level Estimated
11:21PM 42.2084 -75.9796 North  Level Estimated
11:22PM 42.2084 -75.9796 North  Level Estimated